createdAt,value
2022-10-22T00:00:40.898Z,100924.53
2022-10-22T00:03:08.227Z,100940.44
2022-10-22T00:05:36.750Z,100929.34
2022-10-22T00:08:04.293Z,100926.94
2022-10-22T00:10:31.605Z,100922.50
2022-10-22T00:12:58.842Z,100938.31
2022-10-22T00:15:26.189Z,100921.66
2022-10-22T00:17:53.475Z,100930.84
2022-10-22T00:20:20.793Z,100914.56
2022-10-22T00:22:48.504Z,100917.09
2022-10-22T00:25:15.881Z,100913.50
2022-10-22T00:27:43.531Z,100913.06
2022-10-22T00:30:11.494Z,100908.66
2022-10-22T00:32:41.122Z,100894.63
2022-10-22T00:35:08.666Z,100886.09
2022-10-22T00:37:35.946Z,100882.44
2022-10-22T00:40:04.566Z,100884.41
2022-10-22T00:42:32.065Z,100865.03
2022-10-22T00:45:11.129Z,100876.16
2022-10-22T00:47:58.716Z,100867.06
2022-10-22T00:50:38.000Z,100853.72
2022-10-22T00:53:13.146Z,100836.50
2022-10-22T00:55:42.363Z,100831.78
2022-10-22T00:58:10.178Z,100849.56
2022-10-22T01:00:37.554Z,100857.56
2022-10-22T01:03:05.393Z,100852.31
2022-10-22T01:05:41.812Z,100867.06
2022-10-22T01:08:18.397Z,100868.22
2022-10-22T01:11:24.052Z,100854.75
2022-10-22T01:14:05.933Z,100867.59
2022-10-22T01:16:57.541Z,100848.03
2022-10-22T01:19:46.825Z,100854.00
2022-10-22T01:22:20.019Z,100854.44
2022-10-22T01:24:47.301Z,100844.66
2022-10-22T01:27:49.978Z,100841.69
2022-10-22T01:30:18.116Z,100826.31
2022-10-22T01:33:01.059Z,100810.88
2022-10-22T01:38:11.307Z,100821.41
2022-10-22T01:40:39.805Z,100826.03
2022-10-22T01:43:09.649Z,100824.56
2022-10-22T01:45:43.592Z,100821.66
2022-10-22T01:48:37.637Z,100816.69
2022-10-22T01:51:13.913Z,100817.81
2022-10-22T01:53:53.766Z,100806.44
2022-10-22T01:56:42.521Z,100817.81
2022-10-22T01:59:15.854Z,100800.16
2022-10-22T02:02:12.745Z,100797.66
2022-10-22T02:04:47.205Z,100804.03
2022-10-22T02:07:19.549Z,100781.44
2022-10-22T02:09:47.892Z,100793.44
2022-10-22T02:12:18.830Z,100791.75
2022-10-22T02:14:48.134Z,100783.13
2022-10-22T02:17:20.279Z,100784.41
2022-10-22T02:19:56.288Z,100805.88
2022-10-22T02:22:25.240Z,100822.81
2022-10-22T02:24:52.531Z,100799.44
2022-10-22T02:27:27.278Z,100772.50
2022-10-22T02:30:11.116Z,100774.09
2022-10-22T02:32:50.710Z,100783.97
2022-10-22T02:35:21.736Z,100771.59
2022-10-22T02:37:51.141Z,100770.13
2022-10-22T02:40:19.500Z,100761.72
2022-10-22T02:42:48.425Z,100758.38
2022-10-22T02:45:17.713Z,100749.31
2022-10-22T02:47:45.172Z,100730.63
2022-10-22T02:50:12.537Z,100738.91
2022-10-22T02:52:40.120Z,100731.78
2022-10-22T02:55:08.286Z,100738.81
2022-10-22T02:57:35.493Z,100732.09
2022-10-22T03:00:04.754Z,100744.78
2022-10-22T03:02:32.078Z,100746.16
2022-10-22T03:04:59.456Z,100749.81
2022-10-22T03:07:26.821Z,100747.63
2022-10-22T03:09:54.226Z,100746.59
2022-10-22T03:12:21.530Z,100746.16
2022-10-22T03:14:48.766Z,100751.31
2022-10-22T03:17:15.987Z,100741.72
2022-10-22T03:19:43.262Z,100735.00
2022-10-22T03:22:15.648Z,100742.59
2022-10-22T03:24:46.138Z,100740.25
2022-10-22T03:27:16.719Z,100726.75
2022-10-22T03:29:44.449Z,100720.00
2022-10-22T03:32:13.166Z,100713.38
2022-10-22T03:34:40.638Z,100695.13
2022-10-22T03:37:08.107Z,100706.88
2022-10-22T03:39:37.058Z,100703.72
2022-10-22T03:42:06.442Z,100691.41
2022-10-22T03:44:36.521Z,100692.34
2022-10-22T03:47:04.328Z,100711.91
2022-10-22T03:49:31.580Z,100712.34
2022-10-22T03:52:04.716Z,100696.34
2022-10-22T03:54:32.031Z,100706.94
2022-10-22T03:56:59.330Z,100715.25
2022-10-22T03:59:26.612Z,100716.94
2022-10-22T04:01:54.174Z,100709.16
2022-10-22T04:04:21.498Z,100706.63
2022-10-22T04:06:48.723Z,100730.16
2022-10-22T04:09:16.055Z,100730.84
2022-10-22T04:11:43.479Z,100726.81
2022-10-22T04:14:12.073Z,100722.84
2022-10-22T04:16:40.897Z,100710.00
2022-10-22T04:19:08.793Z,100711.69
2022-10-22T04:21:36.226Z,100705.25
2022-10-22T04:24:03.638Z,100719.88
2022-10-22T04:26:30.877Z,100710.22
2022-10-22T04:28:58.150Z,100702.63
2022-10-22T04:31:26.084Z,100706.06
2022-10-22T04:33:58.710Z,100718.72
2022-10-22T04:36:28.131Z,100720.19
2022-10-22T04:39:00.208Z,100710.38
2022-10-22T04:41:30.408Z,100718.56
2022-10-22T04:43:58.515Z,100717.09
2022-10-22T04:46:28.237Z,100709.50
2022-10-22T04:48:56.052Z,100695.44
2022-10-22T04:51:25.767Z,100690.47
2022-10-22T04:53:53.774Z,100688.06
2022-10-22T04:56:29.914Z,100673.88
2022-10-22T04:59:02.831Z,100673.97
2022-10-22T05:01:31.349Z,100694.13
2022-10-22T05:04:00.998Z,100697.25
2022-10-22T05:06:30.652Z,100681.31
2022-10-22T05:09:00.169Z,100673.00
2022-10-22T05:11:34.503Z,100660.91
2022-10-22T05:14:04.478Z,100669.91
2022-10-22T05:16:32.843Z,100665.09
2022-10-22T05:19:01.398Z,100659.59
2022-10-22T05:21:29.073Z,100659.59
2022-10-22T05:23:59.614Z,100659.16
2022-10-22T05:26:28.333Z,100671.72
2022-10-22T05:28:55.621Z,100679.84
2022-10-22T05:31:23.069Z,100667.44
2022-10-22T05:33:50.368Z,100665.00
2022-10-22T05:36:20.976Z,100676.28
2022-10-22T05:38:49.587Z,100673.19
2022-10-22T05:41:20.713Z,100666.88
2022-10-22T05:43:48.263Z,100684.63
2022-10-22T05:46:22.803Z,100669.44
2022-10-22T05:49:05.740Z,100663.41
2022-10-22T05:51:36.041Z,100666.03
2022-10-22T05:54:06.556Z,100678.31
2022-10-22T05:56:34.933Z,100670.41
2022-10-22T06:01:32.855Z,100664.06
2022-10-22T06:04:05.074Z,100664.63
2022-10-22T06:06:39.804Z,100684.50
2022-10-22T06:09:23.556Z,100695.44
2022-10-22T06:11:51.656Z,100706.34
2022-10-22T06:14:20.333Z,100700.63
2022-10-22T06:16:48.465Z,100680.06
2022-10-22T06:19:19.678Z,100703.56
2022-10-22T06:21:47.939Z,100722.13
2022-10-22T06:24:15.753Z,100715.31
2022-10-22T06:26:43.052Z,100718.47
2022-10-22T06:29:10.488Z,100715.19
2022-10-22T06:31:37.877Z,100708.75
2022-10-22T06:34:07.989Z,100711.97
2022-10-22T06:36:36.134Z,100703.69
2022-10-22T06:39:04.680Z,100721.66
2022-10-22T06:41:32.274Z,100732.91
2022-10-22T06:44:00.123Z,100729.69
2022-10-22T06:46:27.449Z,100731.94
2022-10-22T06:49:00.891Z,100736.81
2022-10-22T06:51:29.907Z,100746.28
2022-10-22T06:53:58.066Z,100730.91
2022-10-22T06:56:27.550Z,100733.84
2022-10-22T06:58:58.456Z,100734.06
2022-10-22T07:01:29.081Z,100726.91
2022-10-22T07:03:56.936Z,100739.09
2022-10-22T07:06:25.796Z,100728.88
2022-10-22T07:08:55.268Z,100743.72
2022-10-22T07:11:24.923Z,100746.00
2022-10-22T07:13:55.573Z,100746.69
2022-10-22T07:16:26.887Z,100750.66
2022-10-22T07:19:00.365Z,100747.22
2022-10-22T07:21:27.777Z,100749.91
2022-10-22T07:23:55.278Z,100756.06
2022-10-22T07:26:24.917Z,100746.72
2022-10-22T07:28:52.210Z,100752.16
2022-10-22T07:31:19.535Z,100765.78
2022-10-22T07:33:46.891Z,100768.31
2022-10-22T07:36:17.966Z,100751.78
2022-10-22T07:38:47.404Z,100761.59
2022-10-22T07:41:16.848Z,100761.50
2022-10-22T07:43:44.790Z,100770.31
2022-10-22T07:46:12.488Z,100768.75
2022-10-22T07:48:39.907Z,100773.66
2022-10-22T07:51:08.088Z,100783.50
2022-10-22T07:53:35.573Z,100783.09
2022-10-22T07:56:03.058Z,100783.47
2022-10-22T07:58:30.494Z,100773.16
2022-10-22T08:01:02.705Z,100767.75
2022-10-22T08:03:31.236Z,100767.53
2022-10-22T08:06:02.270Z,100775.81
2022-10-22T08:08:33.397Z,100763.94
2022-10-22T08:11:01.837Z,100776.66
2022-10-22T08:13:32.632Z,100774.81
2022-10-22T08:16:00.754Z,100776.38
2022-10-22T08:18:29.439Z,100778.78
2022-10-22T08:20:57.763Z,100777.81
2022-10-22T08:23:27.697Z,100782.38
2022-10-22T08:25:57.174Z,100791.25
2022-10-22T08:28:26.556Z,100782.84
2022-10-22T08:30:56.474Z,100786.44
2022-10-22T08:33:24.681Z,100785.00
2022-10-22T08:35:53.326Z,100792.56
2022-10-22T08:38:21.226Z,100786.31
2022-10-22T08:40:57.233Z,100789.22
2022-10-22T08:43:33.776Z,100798.16
2022-10-22T08:46:08.669Z,100798.06
2022-10-22T08:48:47.487Z,100793.03
2022-10-22T08:51:19.568Z,100801.09
2022-10-22T08:54:17.609Z,100818.84
2022-10-22T08:57:06.693Z,100808.31
2022-10-22T08:59:53.532Z,100806.59
2022-10-22T09:02:58.376Z,100814.72
2022-10-22T09:05:42.617Z,100826.25
2022-10-22T09:08:13.370Z,100810.66
2022-10-22T09:10:54.797Z,100805.97
2022-10-22T09:13:23.373Z,100801.94
2022-10-22T09:15:55.981Z,100814.03
2022-10-22T09:18:32.334Z,100808.44
2022-10-22T09:21:10.962Z,100810.16
2022-10-22T09:24:06.663Z,100819.28
2022-10-22T09:26:38.699Z,100821.00
2022-10-22T09:29:06.472Z,100830.34
2022-10-22T09:31:35.518Z,100834.66
2022-10-22T09:34:07.424Z,100809.69
2022-10-22T09:36:35.429Z,100814.47
2022-10-22T09:39:02.833Z,100801.94
2022-10-22T09:41:32.212Z,100804.56
2022-10-22T09:44:01.150Z,100826.59
2022-10-22T09:46:29.869Z,100832.13
2022-10-22T09:48:57.178Z,100835.31
2022-10-22T09:51:37.560Z,100832.69
2022-10-22T09:54:16.821Z,100821.56
2022-10-22T09:56:57.998Z,100822.25
2022-10-22T09:59:30.751Z,100820.53
2022-10-22T10:02:20.387Z,100822.63
2022-10-22T10:05:04.076Z,100820.97
2022-10-22T10:07:33.077Z,100828.38
2022-10-22T10:10:02.291Z,100839.47
2022-10-22T10:15:45.097Z,100843.19
2022-10-22T10:18:52.034Z,100841.44
2022-10-22T10:21:58.581Z,100852.66
2022-10-22T10:24:41.247Z,100855.28
2022-10-22T10:27:29.790Z,100860.41
2022-10-22T10:30:24.394Z,100862.88
2022-10-22T10:33:01.659Z,100863.94
2022-10-22T10:35:33.468Z,100860.59
2022-10-22T10:38:07.069Z,100858.66
2022-10-22T10:40:51.298Z,100863.06
2022-10-22T10:43:39.219Z,100861.56
2022-10-22T10:46:13.174Z,100859.38
2022-10-22T10:48:57.932Z,100841.38
2022-10-22T10:51:46.571Z,100841.31
2022-10-22T10:54:26.544Z,100844.84
2022-10-22T10:56:58.469Z,100858.72
2022-10-22T10:59:40.979Z,100857.38
2022-10-22T11:02:38.845Z,100856.78
2022-10-22T11:05:12.738Z,100841.66
2022-10-22T11:07:52.349Z,100854.63
2022-10-22T11:10:32.418Z,100861.22
2022-10-22T11:13:07.403Z,100867.81
2022-10-22T11:15:40.413Z,100856.09
2022-10-22T11:18:24.750Z,100861.72
2022-10-22T11:20:55.932Z,100864.84
2022-10-22T11:23:34.143Z,100855.06
2022-10-22T11:26:05.549Z,100860.78
2022-10-22T11:28:43.808Z,100863.19
2022-10-22T11:31:18.408Z,100851.78
2022-10-22T11:34:32.062Z,100859.53
2022-10-22T11:36:57.888Z,100845.63
2022-10-22T11:39:44.383Z,100856.47
2022-10-22T11:42:22.307Z,100856.59
2022-10-22T11:45:03.296Z,100863.78
2022-10-22T11:47:42.043Z,100857.81
2022-10-22T11:50:25.588Z,100855.91
2022-10-22T11:53:06.144Z,100849.81
2022-10-22T11:55:46.473Z,100856.00
2022-10-22T11:58:29.080Z,100866.00
2022-10-22T12:01:17.443Z,100865.19
2022-10-22T12:03:50.209Z,100865.31
2022-10-22T12:06:28.483Z,100863.44
2022-10-22T12:09:04.674Z,100873.97
2022-10-22T12:11:50.857Z,100864.94
2022-10-22T12:14:28.155Z,100870.44
2022-10-22T12:17:08.674Z,100872.28
2022-10-22T12:19:37.519Z,100879.59
2022-10-22T12:22:07.724Z,100884.88
2022-10-22T12:24:36.640Z,100892.19
2022-10-22T12:27:03.816Z,100879.66
2022-10-22T12:29:32.813Z,100894.13
2022-10-22T12:32:04.026Z,100890.25
2022-10-22T12:34:31.372Z,100890.75
2022-10-22T12:36:58.595Z,100895.22
2022-10-22T12:39:27.239Z,100894.25
2022-10-22T12:41:55.233Z,100882.75
2022-10-22T12:44:22.500Z,100886.63
2022-10-22T12:46:53.176Z,100884.69
2022-10-22T12:49:33.210Z,100878.84
2022-10-22T12:52:05.293Z,100875.53
2022-10-22T12:54:34.510Z,100885.72
2022-10-22T12:57:02.206Z,100881.03
2022-10-22T12:59:37.094Z,100874.09
2022-10-22T13:02:30.252Z,100871.47
2022-10-22T13:05:15.641Z,100880.44
2022-10-22T13:07:50.688Z,100871.56
2022-10-22T13:10:24.132Z,100871.69
2022-10-22T13:12:56.369Z,100879.44
2022-10-22T13:15:35.771Z,100873.88
2022-10-22T13:18:15.680Z,100879.56
2022-10-22T13:20:55.386Z,100892.44
2022-10-22T13:23:23.908Z,100889.66
2022-10-22T13:26:09.891Z,100884.91
2022-10-22T13:28:37.040Z,100893.03
2022-10-22T13:31:17.650Z,100892.06
2022-10-22T13:33:52.313Z,100885.44
2022-10-22T13:36:19.353Z,100887.03
2022-10-22T13:38:46.657Z,100889.16
2022-10-22T13:41:18.936Z,100895.66
2022-10-22T13:43:46.113Z,100892.97
2022-10-22T13:46:13.129Z,100890.00
2022-10-22T13:48:40.758Z,100892.22
2022-10-22T13:51:13.682Z,100896.03
2022-10-22T13:53:41.104Z,100891.50
2022-10-22T13:56:12.775Z,100888.72
2022-10-22T13:58:39.776Z,100884.16
2022-10-22T14:01:11.278Z,100892.97
2022-10-22T14:03:38.367Z,100886.63
2022-10-22T14:06:07.560Z,100890.66
2022-10-22T14:08:34.674Z,100894.00
2022-10-22T14:11:01.769Z,100889.69
2022-10-22T14:13:29.045Z,100885.50
2022-10-22T14:15:56.165Z,100893.47
2022-10-22T14:18:26.688Z,100882.69
2022-10-22T14:20:55.118Z,100883.78
2022-10-22T14:23:23.416Z,100883.56
2022-10-22T14:25:53.862Z,100888.53
2022-10-22T14:28:21.270Z,100883.00
2022-10-22T14:30:53.069Z,100883.19
2022-10-22T14:33:28.799Z,100897.88
2022-10-22T14:36:01.987Z,100895.47
2022-10-22T14:38:31.326Z,100891.66
2022-10-22T14:40:59.453Z,100889.09
2022-10-22T14:43:28.359Z,100895.16
2022-10-22T14:45:55.649Z,100902.66
2022-10-22T14:48:23.118Z,100902.41
2022-10-22T14:50:50.401Z,100902.66
2022-10-22T14:53:17.624Z,100899.28
2022-10-22T14:55:44.992Z,100903.75
2022-10-22T14:58:12.462Z,100904.84
2022-10-22T15:00:42.930Z,100907.28
2022-10-22T15:03:10.459Z,100903.94
2022-10-22T15:05:43.384Z,100911.16
2022-10-22T15:08:11.218Z,100916.44
2022-10-22T15:10:38.345Z,100913.81
2022-10-22T15:13:05.487Z,100910.59
2022-10-22T15:15:36.744Z,100911.09
2022-10-22T15:18:06.764Z,100908.84
2022-10-22T15:20:33.874Z,100917.72
2022-10-22T15:23:00.844Z,100909.78
2022-10-22T15:25:28.744Z,100903.81
2022-10-22T15:28:00.721Z,100908.84
2022-10-22T15:30:34.842Z,100904.56
2022-10-22T15:33:01.831Z,100910.69
2022-10-22T15:35:28.848Z,100908.22
2022-10-22T15:37:55.863Z,100905.13
2022-10-22T15:40:22.920Z,100912.81
2022-10-22T15:42:49.895Z,100908.75
2022-10-22T15:45:17.056Z,100910.34
2022-10-22T15:47:48.067Z,100914.81
2022-10-22T15:50:15.642Z,100912.88
2022-10-22T15:52:42.731Z,100919.72
2022-10-22T15:55:10.637Z,100925.97
2022-10-22T15:57:38.087Z,100933.38
2022-10-22T16:00:06.074Z,100934.75
2022-10-22T16:02:39.347Z,100938.28
2022-10-22T16:05:06.710Z,100940.66
2022-10-22T16:07:33.656Z,100948.47
2022-10-22T16:10:01.610Z,100943.50
2022-10-22T16:12:28.858Z,100952.63
2022-10-22T16:14:56.101Z,100960.72
2022-10-22T16:17:24.385Z,100964.78
2022-10-22T16:19:51.633Z,100968.59
2022-10-22T16:22:18.865Z,100973.94
2022-10-22T16:24:46.140Z,100970.19
2022-10-22T16:27:13.349Z,100968.13
2022-10-22T16:29:40.613Z,100975.09
2022-10-22T16:32:08.086Z,100980.41
2022-10-22T16:34:35.697Z,100987.97
2022-10-22T16:37:04.275Z,100982.72
2022-10-22T16:39:31.454Z,100991.41
2022-10-22T16:41:58.656Z,100989.72
2022-10-22T16:44:25.931Z,100996.72
2022-10-22T16:46:53.277Z,100997.97
2022-10-22T16:49:20.550Z,101000.91
2022-10-22T16:51:47.797Z,101013.47
2022-10-22T16:54:15.620Z,101016.31
2022-10-22T16:56:42.801Z,101025.34
2022-10-22T16:59:10.082Z,101023.44
2022-10-22T17:01:40.915Z,101025.25
2022-10-22T17:04:09.350Z,101024.72
2022-10-22T17:09:28.821Z,101027.41
2022-10-22T17:12:03.167Z,101032.66
2022-10-22T17:14:38.536Z,101034.97
2022-10-22T17:17:23.370Z,101040.22
2022-10-22T17:19:56.091Z,101033.69
2022-10-22T17:22:29.086Z,101029.91
2022-10-22T17:25:14.999Z,101052.88
2022-10-22T17:27:43.926Z,101051.84
2022-10-22T17:30:23.378Z,101059.59
2022-10-22T17:32:54.497Z,101059.41
2022-10-22T17:35:21.609Z,101063.59
2022-10-22T17:37:48.737Z,101071.53
2022-10-22T17:40:15.752Z,101071.72
2022-10-22T17:42:43.264Z,101066.78
2022-10-22T17:45:10.445Z,101065.75
2022-10-22T17:47:37.621Z,101081.72
2022-10-22T17:50:04.874Z,101085.13
2022-10-22T17:52:32.029Z,101090.38
2022-10-22T17:55:00.137Z,101099.81
2022-10-22T17:57:27.638Z,101096.22
2022-10-22T17:59:54.713Z,101097.50
2022-10-22T18:02:21.875Z,101099.00
2022-10-22T18:04:52.438Z,101099.00
2022-10-22T18:07:20.756Z,101102.41
2022-10-22T18:09:48.193Z,101109.34
2022-10-22T18:12:18.002Z,101114.16
2022-10-22T18:14:47.745Z,101130.19
2022-10-22T18:19:48.010Z,101127.59
2022-10-22T18:22:15.398Z,101131.16
2022-10-22T18:24:44.441Z,101128.16
2022-10-22T18:27:13.328Z,101123.09
2022-10-22T18:29:40.346Z,101124.97
2022-10-22T18:32:13.141Z,101135.31
2022-10-22T18:34:40.653Z,101145.91
2022-10-22T18:37:07.724Z,101148.28
2022-10-22T18:39:35.608Z,101147.13
2022-10-22T18:42:06.904Z,101159.34
2022-10-22T18:44:34.811Z,101150.31
2022-10-22T18:47:03.920Z,101156.06
2022-10-22T18:49:30.994Z,101156.16
2022-10-22T18:51:58.047Z,101160.28
2022-10-22T18:54:25.520Z,101162.53
2022-10-22T18:56:53.478Z,101160.09
2022-10-22T18:59:24.555Z,101161.50
2022-10-22T19:01:55.961Z,101158.94
2022-10-22T19:04:23.157Z,101158.94
2022-10-22T19:06:50.170Z,101163.66
2022-10-22T19:09:17.684Z,101161.75
2022-10-22T19:11:45.055Z,101159.13
2022-10-22T19:14:13.091Z,101169.44
2022-10-22T19:16:40.338Z,101175.00
2022-10-22T19:19:09.108Z,101172.84
2022-10-22T19:21:37.187Z,101179.03
2022-10-22T19:24:06.564Z,101182.59
2022-10-22T19:26:33.718Z,101189.63
2022-10-22T19:29:00.947Z,101194.06
2022-10-22T19:31:29.846Z,101192.16
2022-10-22T19:33:58.271Z,101195.56
2022-10-22T19:36:27.607Z,101203.34
2022-10-22T19:38:54.720Z,101200.63
2022-10-22T19:41:22.969Z,101203.44
2022-10-22T19:43:52.523Z,101208.22
2022-10-22T19:46:20.441Z,101209.03
2022-10-22T19:48:47.810Z,101212.25
2022-10-22T19:51:17.674Z,101219.94
2022-10-22T19:53:45.957Z,101223.59
2022-10-22T19:56:17.863Z,101228.75
2022-10-22T19:58:45.320Z,101226.88
2022-10-22T20:01:13.892Z,101227.63
2022-10-22T20:03:41.580Z,101234.19
2022-10-22T20:06:10.527Z,101234.38
2022-10-22T20:08:38.041Z,101233.56
2022-10-22T20:11:06.978Z,101231.66
2022-10-22T20:13:34.687Z,101228.78
2022-10-22T20:16:02.061Z,101239.44
2022-10-22T20:18:29.183Z,101239.09
2022-10-22T20:20:56.312Z,101239.66
2022-10-22T20:23:23.302Z,101237.38
2022-10-22T20:25:50.534Z,101238.91
2022-10-22T20:28:17.659Z,101241.72
2022-10-22T20:30:45.942Z,101240.78
2022-10-22T20:33:15.539Z,101251.28
2022-10-22T20:35:42.836Z,101253.91
2022-10-22T20:38:12.702Z,101247.34
2022-10-22T20:40:39.972Z,101251.06
2022-10-22T20:43:10.500Z,101248.69
2022-10-22T20:45:40.062Z,101244.84
2022-10-22T20:48:07.408Z,101254.16
2022-10-22T20:50:34.848Z,101256.56
2022-10-22T20:53:02.989Z,101261.31
2022-10-22T20:55:30.167Z,101259.97
2022-10-22T20:57:57.349Z,101265.41
2022-10-22T21:00:24.473Z,101270.66
2022-10-22T21:02:51.583Z,101280.06
2022-10-22T21:05:18.856Z,101285.75
2022-10-22T21:07:45.972Z,101281.53
2022-10-22T21:10:13.143Z,101285.94
2022-10-22T21:12:42.327Z,101292.13
2022-10-22T21:15:12.520Z,101295.44
2022-10-22T21:17:40.676Z,101288.91
2022-10-22T21:20:08.018Z,101283.38
2022-10-22T21:22:35.221Z,101293.03
2022-10-22T21:25:02.239Z,101299.72
2022-10-22T21:27:30.588Z,101293.38
2022-10-22T21:29:57.604Z,101295.03
2022-10-22T21:32:28.281Z,101297.38
2022-10-22T21:34:57.785Z,101289.44
2022-10-22T21:37:24.901Z,101293.50
2022-10-22T21:39:52.034Z,101287.56
2022-10-22T21:42:19.114Z,101298.25
2022-10-22T21:44:46.250Z,101304.88
2022-10-22T21:47:13.327Z,101308.69
2022-10-22T21:49:40.358Z,101309.81
2022-10-22T21:52:07.381Z,101311.13
2022-10-22T21:54:37.248Z,101313.50
2022-10-22T21:57:04.558Z,101312.84
2022-10-22T21:59:32.318Z,101311.38
2022-10-22T22:02:03.471Z,101308.28
2022-10-22T22:04:33.088Z,101305.34
2022-10-22T22:07:00.140Z,101301.94
2022-10-22T22:09:27.244Z,101311.41
2022-10-22T22:11:54.226Z,101314.78
2022-10-22T22:14:21.327Z,101313.94
2022-10-22T22:16:49.475Z,101316.97
2022-10-22T22:19:19.854Z,101318.19
2022-10-22T22:21:47.017Z,101311.91
2022-10-22T22:24:14.383Z,101313.38
2022-10-22T22:26:41.560Z,101317.13
2022-10-22T22:29:10.293Z,101310.38
2022-10-22T22:31:37.466Z,101304.28
2022-10-22T22:34:07.718Z,101309.00
2022-10-22T22:36:39.520Z,101310.38
2022-10-22T22:39:07.323Z,101315.63
2022-10-22T22:41:34.653Z,101311.47
2022-10-22T22:44:02.002Z,101310.19
2022-10-22T22:46:29.119Z,101301.19
2022-10-22T22:48:56.121Z,101311.69
2022-10-22T22:51:23.410Z,101302.88
2022-10-22T22:53:50.737Z,101310.00
2022-10-22T22:56:19.193Z,101304.94
2022-10-22T22:58:46.291Z,101300.88
2022-10-22T23:01:15.055Z,101300.69
2022-10-22T23:03:42.785Z,101304.38
2022-10-22T23:06:10.271Z,101300.25
2022-10-22T23:08:37.513Z,101297.00
2022-10-22T23:11:06.032Z,101306.16
2022-10-22T23:13:33.775Z,101322.44
2022-10-22T23:16:04.711Z,101319.44
2022-10-22T23:18:31.773Z,101307.06
2022-10-22T23:20:58.779Z,101306.50
2022-10-22T23:23:25.857Z,101312.84
2022-10-22T23:25:54.520Z,101316.03
2022-10-22T23:28:23.004Z,101309.75
2022-10-22T23:30:50.121Z,101306.69
2022-10-22T23:33:19.266Z,101313.13
2022-10-22T23:35:46.378Z,101315.69
2022-10-22T23:38:13.424Z,101322.97
2022-10-22T23:40:40.484Z,101314.50
2022-10-22T23:43:07.684Z,101318.47
2022-10-22T23:45:35.033Z,101311.22
2022-10-22T23:48:02.068Z,101306.16
2022-10-22T23:50:29.432Z,101301.09
2022-10-22T23:52:56.595Z,101307.28
2022-10-22T23:55:23.596Z,101308.97
2022-10-22T23:57:50.644Z,101306.16
